Time;durP1;ratioP1;P1;durP2;ratioP2;P2;SDS_P1;SDS_P2;PMS_P1;PMS_P2;Temp;Humidity;BMP_temperature;BMP_pressure;BME280_temperature;BME280_humidity;BME280_pressure;Samples;Min_cycle;Max_cycle;Signal;HPM_P1;HPM_P2
2022/09/27 00:02:15;;;;;;;11.20;1.00;;;10.70;99.90;;;;;;5075941;28;20036;-64
2022/09/27 00:04:41;;;;;;;5.85;1.17;;;10.70;99.90;;;;;;5076542;28;20036;-65
2022/09/27 00:07:07;;;;;;;4.30;1.30;;;10.70;99.90;;;;;;5076036;28;20052;-64
2022/09/27 00:09:33;;;;;;;5.70;0.80;;;10.70;99.90;;;;;;5075957;28;20040;-64
2022/09/27 00:11:58;;;;;;;2.85;1.00;;;10.70;99.90;;;;;;5076107;28;20072;-64
2022/09/27 00:14:24;;;;;;;5.65;1.00;;;10.60;99.90;;;;;;5075487;28;20479;-65
2022/09/27 00:16:50;;;;;;;7.78;1.27;;;10.60;99.90;;;;;;5075889;28;20040;-64
2022/09/27 00:19:18;;;;;;;7.15;1.00;;;10.70;99.90;;;;;;5075907;28;20051;-65
2022/09/27 00:21:45;;;;;;;3.53;0.88;;;10.60;99.90;;;;;;5075815;28;20044;-65
2022/09/27 00:24:12;;;;;;;3.83;0.60;;;10.60;99.90;;;;;;5075887;28;20039;-66
2022/09/27 00:26:38;;;;;;;12.02;1.50;;;10.70;99.90;;;;;;5075814;28;20391;-65
2022/09/27 00:29:04;;;;;;;6.78;1.30;;;10.60;99.90;;;;;;5074449;28;20084;-65
2022/09/27 00:31:30;;;;;;;6.47;1.00;;;10.60;99.90;;;;;;5075597;28;20040;-65
2022/09/27 00:33:59;;;;;;;7.93;1.25;;;10.60;99.90;;;;;;5075849;28;20037;-65
2022/09/27 00:36:26;;;;;;;5.95;0.43;;;10.60;99.90;;;;;;5074645;28;20355;-64
2022/09/27 00:38:53;;;;;;;4.85;0.75;;;10.60;99.90;;;;;;5075633;28;20044;-65
2022/09/27 00:41:37;;;;;;;9.43;0.80;;;10.50;99.90;;;;;;5075137;28;20045;-64
2022/09/27 00:44:28;;;;;;;5.15;0.82;;;10.50;99.90;;;;;;5075492;28;20056;-65
2022/09/27 00:47:18;;;;;;;8.70;0.80;;;10.40;99.90;;;;;;5075410;28;20036;-64
2022/09/27 00:49:58;;;;;;;5.85;0.70;;;10.50;99.90;;;;;;5075345;28;20040;-65
2022/09/27 00:52:34;;;;;;;4.43;1.00;;;10.40;99.90;;;;;;5075311;28;20119;-64
2022/09/27 00:55:09;;;;;;;2.25;0.50;;;10.40;99.90;;;;;;5074928;28;20052;-64
2022/09/27 00:57:35;;;;;;;9.73;0.80;;;10.30;99.90;;;;;;5075192;28;20033;-65
2022/09/27 01:00:05;;;;;;;2.42;0.50;;;10.40;99.90;;;;;;5075155;28;20098;-65
2022/09/27 01:02:31;;;;;;;8.57;1.83;;;10.30;99.90;;;;;;5075525;28;20040;-65
2022/09/27 01:04:57;;;;;;;4.68;0.70;;;10.20;99.90;;;;;;5074957;28;20047;-65
2022/09/27 01:07:23;;;;;;;5.25;1.25;;;10.20;99.90;;;;;;5074990;28;20036;-64
2022/09/27 01:09:49;;;;;;;7.85;1.60;;;10.10;99.90;;;;;;5074937;28;20479;-65
2022/09/27 01:12:29;;;;;;;5.38;0.63;;;10.10;99.90;;;;;;5074212;28;20045;-65
2022/09/27 01:15:37;;;;;;;2.92;0.68;;;10.00;99.90;;;;;;5074821;28;20033;-65
2022/09/27 01:18:27;;;;;;;5.32;1.02;;;10.00;99.90;;;;;;5032543;28;20053;-65
2022/09/27 01:21:07;;;;;;;8.43;0.75;;;10.00;99.90;;;;;;5032689;28;20574;-64
2022/09/27 01:23:56;;;;;;;4.47;0.77;;;10.10;99.90;;;;;;5033102;28;20057;-65
2022/09/27 01:27:00;;;;;;;3.50;0.60;;;10.10;99.90;;;;;;5032424;28;20545;-64
2022/09/27 01:29:56;;;;;;;5.85;1.65;;;10.20;99.90;;;;;;5015959;28;20545;-64
2022/09/27 01:32:34;;;;;;;7.32;0.80;;;10.20;99.90;;;;;;5032268;28;20296;-65
2022/09/27 01:35:16;;;;;;;7.10;1.17;;;10.30;99.90;;;;;;5032430;28;20115;-64
2022/09/27 01:37:51;;;;;;;10.90;1.63;;;10.30;99.90;;;;;;5032450;28;20045;-64
2022/09/27 01:40:44;;;;;;;6.43;0.60;;;10.30;99.90;;;;;;5032230;28;20131;-64
2022/09/27 01:43:39;;;;;;;5.70;0.90;;;10.30;99.90;;;;;;5032341;28;20085;-65
2022/09/27 01:46:12;;;;;;;4.32;0.70;;;10.30;99.90;;;;;;5032213;28;20503;-65
2022/09/27 01:48:46;;;;;;;6.38;0.60;;;10.30;99.90;;;;;;5015707;28;20129;-64
2022/09/27 01:51:20;;;;;;;7.82;1.20;;;10.40;99.90;;;;;;5032165;28;20404;-64
2022/09/27 01:53:51;;;;;;;3.85;1.30;;;10.30;99.90;;;;;;5031855;28;20124;-66
2022/09/27 01:56:25;;;;;;;7.18;2.45;;;10.40;99.90;;;;;;5074060;28;20127;-65
2022/09/27 01:59:02;;;;;;;8.10;3.00;;;10.40;99.90;;;;;;5074152;28;20119;-66
2022/09/27 02:01:31;;;;;;;5.10;1.40;;;10.40;99.90;;;;;;5073753;28;20499;-65
2022/09/27 02:04:00;;;;;;;4.28;1.30;;;10.30;99.90;;;;;;5074051;28;20133;-66
2022/09/27 02:06:40;;;;;;;9.27;0.88;;;10.30;99.90;;;;;;5074024;28;20095;-66
2022/09/27 02:09:08;;;;;;;;;;;10.20;99.90;;;;;;5074394;28;20072;-66
2022/09/27 02:11:36;;;;;;;6.35;0.63;;;10.20;99.90;;;;;;5073880;28;20279;-65
2022/09/27 02:14:30;;;;;;;6.93;0.90;;;10.20;99.90;;;;;;5073948;28;20447;-65
2022/09/27 02:17:14;;;;;;;2.63;0.52;;;10.30;99.90;;;;;;5073371;28;20048;-65
2022/09/27 02:20:02;;;;;;;5.90;1.40;;;10.30;99.90;;;;;;5073843;28;20106;-65
2022/09/27 02:23:04;;;;;;;4.82;1.10;;;10.30;99.90;;;;;;5073764;28;20045;-65
2022/09/27 02:25:41;;;;;;;3.88;1.05;;;10.20;99.90;;;;;;5073735;28;20115;-65
2022/09/27 02:28:39;;;;;;;6.30;1.15;;;10.20;99.90;;;;;;5073856;28;20107;-65
2022/09/27 02:31:05;;;;;;;4.15;0.70;;;10.20;99.90;;;;;;5073774;28;20039;-64
2022/09/27 02:33:39;;;;;;;2.80;0.70;;;10.20;99.90;;;;;;5073814;28;20040;-66
2022/09/27 02:36:05;;;;;;;4.68;0.80;;;10.10;99.90;;;;;;5073669;28;20079;-66
2022/09/27 02:38:31;;;;;;;6.38;0.90;;;10.10;99.90;;;;;;5073477;28;20471;-66
2022/09/27 02:40:57;;;;;;;4.65;1.48;;;10.10;99.90;;;;;;5073697;28;20037;-66
2022/09/27 02:43:27;;;;;;;7.60;0.90;;;10.00;99.90;;;;;;5073420;28;20051;-66
2022/09/27 02:46:14;;;;;;;3.50;0.73;;;10.00;99.90;;;;;;5073612;28;20071;-66
2022/09/27 02:49:10;;;;;;;4.75;0.60;;;9.90;99.90;;;;;;5073552;28;20044;-66
2022/09/27 02:52:13;;;;;;;3.15;1.00;;;9.90;99.90;;;;;;5073465;28;20044;-66
2022/09/27 02:54:44;;;;;;;3.78;0.65;;;10.00;99.90;;;;;;5030977;28;20144;-65
2022/09/27 02:57:40;;;;;;;6.65;1.30;;;9.90;99.90;;;;;;5031304;28;20464;-66
2022/09/27 03:00:15;;;;;;;4.93;0.70;;;9.90;99.90;;;;;;5031223;28;20048;-65
2022/09/27 03:02:52;;;;;;;3.20;0.93;;;9.90;99.90;;;;;;5031340;28;20507;-66
2022/09/27 03:05:25;;;;;;;4.72;1.05;;;9.90;99.90;;;;;;5031342;28;20052;-65
2022/09/27 03:07:51;;;;;;;5.07;1.00;;;9.90;99.90;;;;;;5031184;28;20122;-64
2022/09/27 03:10:22;;;;;;;4.13;0.73;;;9.80;99.90;;;;;;5031219;28;20581;-65
2022/09/27 03:12:49;;;;;;;7.00;0.95;;;9.90;99.90;;;;;;5031273;28;20068;-64
2022/09/27 03:15:15;;;;;;;7.43;1.00;;;9.90;99.90;;;;;;5031053;28;20541;-65
2022/09/27 03:17:41;;;;;;;7.30;1.90;;;9.90;99.90;;;;;;5031173;28;20428;-65
2022/09/27 03:20:07;;;;;;;8.07;1.35;;;10.00;99.90;;;;;;5031050;28;20408;-64
2022/09/27 03:22:34;;;;;;;9.13;1.08;;;10.00;99.90;;;;;;5031022;28;20048;-65
2022/09/27 03:25:00;;;;;;;4.20;1.13;;;10.00;99.90;;;;;;5031224;28;20129;-65
2022/09/27 03:27:26;;;;;;;7.43;1.13;;;9.90;99.90;;;;;;5031067;28;20042;-64
2022/09/27 03:29:51;;;;;;;3.33;1.30;;;9.90;99.90;;;;;;5034383;28;20053;-65
2022/09/27 03:32:17;;;;;;;3.40;0.77;;;9.90;99.90;;;;;;5073312;28;20037;-65
2022/09/27 03:34:43;;;;;;;2.33;0.60;;;9.80;99.90;;;;;;5073143;28;20060;-65
2022/09/27 03:37:09;;;;;;;4.07;0.73;;;9.80;99.90;;;;;;5075992;28;20475;-66
2022/09/27 03:39:35;;;;;;;4.72;0.80;;;9.70;99.90;;;;;;5076755;28;20032;-65
2022/09/27 03:42:01;;;;;;;8.15;0.82;;;9.80;99.90;;;;;;5076653;28;20043;-66
2022/09/27 03:44:26;;;;;;;5.80;1.42;;;9.70;99.90;;;;;;5075362;28;20094;-66
2022/09/27 03:46:52;;;;;;;4.65;0.88;;;9.70;99.90;;;;;;5076549;28;20042;-65
2022/09/27 03:49:18;;;;;;;1.45;0.82;;;9.60;99.90;;;;;;5076525;28;20399;-66
2022/09/27 03:51:44;;;;;;;1.95;0.50;;;9.60;99.90;;;;;;5076519;28;20040;-66
2022/09/27 03:54:09;;;;;;;6.13;0.77;;;9.60;99.90;;;;;;5076343;28;20097;-66
2022/09/27 03:56:35;;;;;;;5.82;0.80;;;9.60;99.90;;;;;;5076325;28;20097;-66
2022/09/27 03:59:04;;;;;;;;;;;9.70;99.90;;;;;;5076748;28;20451;-66
2022/09/27 04:01:30;;;;;;;6.30;1.70;;;9.70;99.90;;;;;;5076218;28;19962;-66
2022/09/27 04:03:55;;;;;;;2.78;0.70;;;9.70;99.90;;;;;;5076245;28;20487;-66
2022/09/27 04:06:22;;;;;;;2.40;0.60;;;9.70;99.90;;;;;;5076256;28;20467;-66
2022/09/27 04:08:47;;;;;;;5.40;0.90;;;9.80;99.90;;;;;;5076133;28;20094;-67
2022/09/27 04:11:14;;;;;;;5.47;1.35;;;9.80;99.90;;;;;;5076209;28;20036;-66
2022/09/27 04:13:40;;;;;;;5.03;0.70;;;9.70;99.90;;;;;;5076025;28;20042;-66
2022/09/27 04:16:06;;;;;;;6.97;0.98;;;9.90;99.90;;;;;;5075079;28;20143;-66
2022/09/27 04:18:32;;;;;;;4.75;0.90;;;9.80;99.90;;;;;;5075976;28;20044;-67
2022/09/27 04:20:58;;;;;;;4.90;0.93;;;9.70;99.90;;;;;;5076076;28;20075;-67
2022/09/27 04:23:24;;;;;;;3.75;0.95;;;9.70;99.90;;;;;;5075845;28;20068;-67
2022/09/27 04:25:49;;;;;;;8.80;1.08;;;9.80;99.90;;;;;;5075858;28;20453;-67
2022/09/27 04:28:15;;;;;;;5.47;0.85;;;9.70;99.90;;;;;;5075897;28;20040;-67
2022/09/27 04:30:41;;;;;;;8.57;1.15;;;9.70;99.90;;;;;;5075716;28;20036;-66
2022/09/27 04:33:07;;;;;;;6.40;0.95;;;9.70;99.90;;;;;;5074553;28;20390;-66
2022/09/27 04:38:19;;;;;;;6.03;1.13;;;9.80;99.90;;;;;;5075598;28;20041;-66
2022/09/27 04:40:44;;;;;;;6.43;0.77;;;9.70;99.90;;;;;;5075493;28;20068;-65
2022/09/27 04:43:10;;;;;;;8.38;1.42;;;9.80;99.90;;;;;;5075467;28;20463;-65
2022/09/27 04:45:35;;;;;;;8.02;1.45;;;9.90;99.90;;;;;;5074395;28;20380;-66
2022/09/27 04:48:01;;;;;;;3.50;0.70;;;9.70;99.90;;;;;;5074378;28;20368;-66
2022/09/27 04:50:27;;;;;;;8.38;1.42;;;9.80;99.90;;;;;;5075315;28;20387;-65
2022/09/27 04:52:53;;;;;;;2.25;0.80;;;9.80;99.90;;;;;;5075404;28;20045;-66
2022/09/27 04:55:20;;;;;;;5.80;0.80;;;9.80;99.90;;;;;;5074881;28;20178;-65
2022/09/27 04:57:46;;;;;;;6.30;0.80;;;9.80;99.90;;;;;;5075251;28;20036;-66
2022/09/27 05:00:13;;;;;;;6.53;1.10;;;9.90;99.90;;;;;;5074044;28;20056;-66
2022/09/27 05:02:38;;;;;;;3.17;0.80;;;9.80;99.90;;;;;;5075086;28;20044;-65
2022/09/27 05:05:05;;;;;;;4.22;0.77;;;9.80;99.90;;;;;;5075031;28;20401;-66
2022/09/27 05:07:33;;;;;;;5.22;0.82;;;9.70;99.90;;;;;;5075476;28;20037;-65
2022/09/27 05:09:59;;;;;;;3.78;0.68;;;9.80;99.90;;;;;;5075087;28;20082;-65
2022/09/27 05:12:25;;;;;;;4.32;0.65;;;9.80;99.90;;;;;;5074948;28;20056;-65
2022/09/27 05:14:52;;;;;;;2.17;0.90;;;9.70;99.90;;;;;;5074976;28;20091;-65
2022/09/27 05:17:19;;;;;;;3.47;0.60;;;9.70;99.90;;;;;;5073723;28;20037;-64
2022/09/27 05:19:44;;;;;;;10.30;1.00;;;9.70;99.90;;;;;;5074712;28;20040;-65
2022/09/27 05:22:10;;;;;;;8.30;1.30;;;9.70;99.90;;;;;;5074473;28;20135;-65
2022/09/27 05:24:37;;;;;;;5.60;1.00;;;9.70;99.90;;;;;;5074678;28;20039;-65
2022/09/27 05:27:06;;;;;;;3.83;0.80;;;9.80;99.90;;;;;;5073557;28;20048;-65
2022/09/27 05:29:33;;;;;;;3.97;0.80;;;9.70;99.90;;;;;;5074684;28;20206;-65
2022/09/27 05:32:00;;;;;;;5.05;0.82;;;9.80;99.90;;;;;;5074441;28;20036;-65
2022/09/27 05:34:26;;;;;;;7.22;0.98;;;9.80;99.90;;;;;;5073483;28;20368;-65
2022/09/27 05:36:51;;;;;;;8.10;1.13;;;9.80;99.90;;;;;;5074606;28;20052;-65
2022/09/27 05:39:17;;;;;;;7.47;0.70;;;9.70;99.90;;;;;;5071857;28;20041;-66
2022/09/27 05:41:44;;;;;;;3.50;0.85;;;9.80;99.90;;;;;;5073119;28;20048;-66
2022/09/27 05:44:10;;;;;;;7.88;1.60;;;9.80;99.90;;;;;;5073202;28;20082;-66
2022/09/27 05:46:37;;;;;;;8.77;2.70;;;9.70;99.90;;;;;;5074145;28;20044;-65
2022/09/27 05:49:03;;;;;;;17.88;3.83;;;9.80;99.90;;;;;;5074265;28;20041;-65
2022/09/27 05:51:29;;;;;;;8.73;2.10;;;9.80;99.90;;;;;;5074268;28;20044;-65
2022/09/27 05:53:55;;;;;;;5.97;1.70;;;9.90;99.90;;;;;;5073887;28;20057;-66
2022/09/27 05:56:21;;;;;;;6.88;1.55;;;9.90;99.90;;;;;;5072665;28;20398;-65
2022/09/27 05:58:46;;;;;;;14.48;1.73;;;9.90;99.90;;;;;;5073893;28;20064;-66
2022/09/27 06:01:12;;;;;;;4.20;0.90;;;9.90;99.90;;;;;;5074008;28;20098;-66
2022/09/27 06:03:38;;;;;;;3.88;1.15;;;9.90;99.90;;;;;;5074459;28;20475;-66
2022/09/27 06:06:05;;;;;;;9.05;2.63;;;10.00;99.90;;;;;;5074089;28;20033;-66
2022/09/27 06:08:35;;;;;;;9.15;3.50;;;10.10;99.90;;;;;;5073178;28;20041;-66
2022/09/27 06:11:09;;;;;;;7.40;3.75;;;10.00;99.90;;;;;;5072939;28;20055;-66
2022/09/27 06:13:35;;;;;;;6.93;1.63;;;10.00;99.90;;;;;;5072970;28;20051;-66
2022/09/27 06:16:02;;;;;;;6.00;1.27;;;10.10;99.90;;;;;;5073849;28;20387;-65
2022/09/27 06:18:28;;;;;;;5.45;1.17;;;10.00;99.90;;;;;;5072450;28;20094;-66
2022/09/27 06:20:54;;;;;;;3.97;1.00;;;10.00;99.90;;;;;;5073794;28;20482;-65
2022/09/27 06:23:22;;;;;;;8.77;1.33;;;9.90;99.90;;;;;;5073829;28;20131;-65
2022/09/27 06:25:49;;;;;;;9.00;1.17;;;9.90;99.90;;;;;;5073772;28;20044;-66
2022/09/27 06:28:16;;;;;;;7.72;0.98;;;9.80;99.90;;;;;;5073820;28;20383;-65
2022/09/27 06:30:44;;;;;;;5.85;0.93;;;9.80;99.90;;;;;;5073721;28;20038;-65
2022/09/27 06:33:12;;;;;;;6.30;0.90;;;9.80;99.90;;;;;;5073698;28;20429;-65
2022/09/27 06:35:39;;;;;;;8.30;0.70;;;9.70;99.90;;;;;;5073446;28;20102;-66
2022/09/27 06:38:08;;;;;;;3.88;0.80;;;9.80;99.90;;;;;;5073390;28;20469;-65
2022/09/27 06:40:34;;;;;;;2.80;0.82;;;9.70;99.90;;;;;;5073638;28;20047;-65
2022/09/27 06:43:09;;;;;;;4.07;0.85;;;9.80;99.90;;;;;;5073572;28;20041;-65
2022/09/27 06:45:36;;;;;;;3.00;0.85;;;9.80;99.90;;;;;;5073576;28;20044;-66
2022/09/27 06:48:07;;;;;;;2.15;1.10;;;9.80;99.90;;;;;;5073273;28;20124;-65
2022/09/27 06:50:35;;;;;;;3.85;0.85;;;9.80;99.90;;;;;;5073777;28;20043;-65
2022/09/27 06:53:01;;;;;;;6.25;1.02;;;9.80;99.90;;;;;;5073379;28;20093;-64
2022/09/27 06:55:27;;;;;;;4.80;1.80;;;9.90;99.90;;;;;;5073535;28;20098;-65
2022/09/27 07:00:42;;;;;;;5.38;1.02;;;9.90;99.90;;;;;;5073457;28;20048;-65
2022/09/27 07:03:13;;;;;;;3.30;1.10;;;9.90;99.90;;;;;;5073397;28;20048;-65
2022/09/27 07:05:41;;;;;;;6.60;0.90;;;9.90;99.90;;;;;;5073453;28;20051;-65
2022/09/27 07:08:13;;;;;;;4.53;0.83;;;10.00;99.90;;;;;;5073360;28;20037;-65
2022/09/27 07:10:39;;;;;;;6.97;0.93;;;10.00;99.90;;;;;;5073967;28;20478;-65
2022/09/27 07:13:06;;;;;;;2.85;1.23;;;10.10;99.90;;;;;;5077187;28;20042;-65
2022/09/27 07:15:36;;;;;;;6.35;0.88;;;10.10;99.90;;;;;;5077256;28;20050;-65
2022/09/27 07:18:04;;;;;;;2.58;0.80;;;10.10;99.90;;;;;;5076755;28;20386;-65
2022/09/27 07:20:31;;;;;;;4.65;1.20;;;10.20;99.90;;;;;;5076920;28;20543;-65
2022/09/27 07:22:57;;;;;;;4.15;1.20;;;10.40;99.90;;;;;;5076831;28;20494;-65
2022/09/27 07:25:24;;;;;;;4.90;1.30;;;10.40;99.90;;;;;;5076834;28;20107;-65
2022/09/27 07:27:51;;;;;;;7.57;1.02;;;10.70;99.90;;;;;;5077031;28;20033;-65
2022/09/27 07:30:18;;;;;;;4.68;0.75;;;11.00;99.90;;;;;;5075623;28;20503;-64
2022/09/27 07:32:44;;;;;;;3.90;0.85;;;11.40;99.90;;;;;;5076808;28;20048;-65
2022/09/27 07:35:11;;;;;;;3.08;0.70;;;11.90;99.90;;;;;;5076904;28;20386;-64
2022/09/27 07:37:37;;;;;;;4.88;1.20;;;12.20;99.90;;;;;;5076745;28;20040;-65
2022/09/27 07:40:06;;;;;;;2.15;0.60;;;12.60;99.90;;;;;;5075719;28;20109;-64
2022/09/27 07:42:32;;;;;;;2.55;0.52;;;12.80;99.90;;;;;;5075369;28;20044;-65
2022/09/27 07:44:58;;;;;;;6.43;0.85;;;12.60;99.90;;;;;;5076550;28;20071;-65
2022/09/27 07:47:26;;;;;;;3.28;0.70;;;12.60;99.90;;;;;;5076646;28;20051;-65
2022/09/27 07:49:52;;;;;;;4.93;0.90;;;12.40;99.90;;;;;;5076608;28;20052;-65
2022/09/27 07:52:18;;;;;;;4.07;0.82;;;12.40;99.90;;;;;;5076649;28;20070;-65
2022/09/27 07:54:45;;;;;;;2.15;0.80;;;12.30;99.90;;;;;;5074830;28;20135;-65
2022/09/27 07:57:12;;;;;;;3.72;0.98;;;12.00;99.90;;;;;;5076355;28;20058;-66
2022/09/27 07:59:38;;;;;;;4.57;1.00;;;11.70;99.90;;;;;;5076218;28;20124;-66
2022/09/27 08:02:03;;;;;;;2.60;0.55;;;11.60;99.90;;;;;;5076532;28;20120;-66
2022/09/27 08:04:29;;;;;;;3.25;0.60;;;11.50;99.90;;;;;;5076164;28;20076;-66
2022/09/27 08:06:55;;;;;;;1.38;0.50;;;11.40;99.90;;;;;;5076293;28;20028;-67
2022/09/27 08:09:20;;;;;;;2.40;0.45;;;11.30;99.90;;;;;;5075976;28;20033;-66
2022/09/27 08:11:47;;;;;;;1.98;0.50;;;11.30;99.90;;;;;;5076619;28;20076;-66
2022/09/27 08:14:13;;;;;;;2.45;0.47;;;11.20;99.90;;;;;;5076154;28;20122;-65
2022/09/27 08:16:40;;;;;;;3.50;0.45;;;11.10;99.90;;;;;;5075789;28;20040;-66
2022/09/27 08:19:06;;;;;;;3.47;0.50;;;11.10;99.90;;;;;;5074683;28;20062;-65
2022/09/27 08:21:32;;;;;;;3.80;0.60;;;11.20;99.90;;;;;;5075830;28;20114;-65
2022/09/27 08:23:58;;;;;;;3.53;0.40;;;11.30;99.90;;;;;;5075829;28;20103;-65
2022/09/27 08:26:26;;;;;;;4.28;0.95;;;11.20;99.90;;;;;;5074667;28;20410;-67
2022/09/27 08:28:51;;;;;;;4.80;0.47;;;11.30;99.90;;;;;;5076175;28;20037;-65
2022/09/27 08:31:17;;;;;;;2.72;0.60;;;11.50;99.90;;;;;;5075865;28;20036;-66
2022/09/27 08:33:42;;;;;;;3.42;0.40;;;11.40;99.90;;;;;;5075790;28;20055;-65
2022/09/27 08:36:12;;;;;;;0.30;0.20;;;11.50;99.90;;;;;;5075746;28;20045;-66
2022/09/27 08:38:37;;;;;;;1.88;0.32;;;11.60;99.90;;;;;;5075555;28;20072;-65
2022/09/27 08:41:19;;;;;;;1.80;0.30;;;11.70;99.90;;;;;;5075696;28;20071;-65
2022/09/27 08:44:04;;;;;;;3.50;0.75;;;11.70;99.90;;;;;;5075583;28;20037;-65
2022/09/27 08:46:43;;;;;;;3.45;0.80;;;11.70;99.90;;;;;;5075526;28;20040;-66
2022/09/27 08:49:32;;;;;;;2.97;1.17;;;11.70;99.90;;;;;;5075434;28;20386;-66
2022/09/27 08:51:59;;;;;;;4.90;0.50;;;11.50;99.90;;;;;;5075489;28;20483;-66
2022/09/27 08:54:29;;;;;;;4.10;0.82;;;11.50;99.90;;;;;;5075087;28;20064;-65
2022/09/27 08:57:11;;;;;;;4.55;0.73;;;11.50;99.90;;;;;;5075312;28;20059;-65
2022/09/27 08:59:42;;;;;;;2.03;0.57;;;11.50;99.90;;;;;;5075175;28;20097;-65
2022/09/27 09:02:18;;;;;;;2.95;0.80;;;11.50;99.90;;;;;;5075183;28;20048;-66
2022/09/27 09:04:46;;;;;;;3.65;0.60;;;11.50;99.90;;;;;;5074012;28;20382;-65
2022/09/27 09:07:50;;;;;;;4.50;0.60;;;11.60;99.90;;;;;;5075139;28;20059;-66
2022/09/27 09:12:45;;;;;;;4.13;0.65;;;11.60;99.90;;;;;;5074431;28;20402;-66
2022/09/27 09:13:33;;;;;;;3.40;0.73;;;11.60;99.90;;;;;;5074858;28;20053;-66
2022/09/27 09:16:16;;;;;;;2.58;0.60;;;11.60;99.90;;;;;;5074625;28;20597;-66
2022/09/27 09:19:00;;;;;;;2.70;1.25;;;11.70;99.90;;;;;;5074891;28;20036;-65
2022/09/27 09:21:25;;;;;;;6.55;1.20;;;11.70;99.90;;;;;;5075032;28;20043;-66
2022/09/27 09:23:57;;;;;;;1.65;0.50;;;11.80;99.90;;;;;;5074729;28;20037;-66
2022/09/27 09:26:41;;;;;;;2.53;0.60;;;11.90;99.90;;;;;;5074719;28;20037;-65
2022/09/27 09:29:29;;;;;;;2.70;0.95;;;11.90;99.90;;;;;;5074390;28;20044;-65
2022/09/27 09:32:33;;;;;;;6.47;1.13;;;12.00;99.90;;;;;;5074580;28;20040;-65
2022/09/27 09:35:04;;;;;;;1.98;0.28;;;12.00;99.90;;;;;;5074023;28;20049;-64
2022/09/27 09:37:43;;;;;;;7.57;1.05;;;11.80;99.90;;;;;;5074545;28;20115;-64
2022/09/27 09:40:19;;;;;;;2.35;0.30;;;11.80;99.90;;;;;;5072753;28;20045;-64
2022/09/27 09:43:01;;;;;;;1.90;0.55;;;11.60;99.90;;;;;;5073487;28;20052;-65
2022/09/27 09:45:35;;;;;;;2.65;0.90;;;11.60;99.90;;;;;;5073792;28;20028;-66
2022/09/27 09:48:28;;;;;;;5.70;0.70;;;11.60;99.90;;;;;;5074355;28;20047;-64
2022/09/27 09:50:58;;;;;;;0.60;0.35;;;11.60;99.90;;;;;;5074308;28;20044;-65
2022/09/27 09:53:26;;;;;;;1.92;0.57;;;11.60;99.90;;;;;;5073704;28;20154;-65
2022/09/27 09:56:01;;;;;;;4.65;0.75;;;11.60;99.90;;;;;;5074300;28;20181;-65
2022/09/27 09:58:45;;;;;;;2.05;1.00;;;11.50;99.90;;;;;;5074478;28;20042;-65
2022/09/27 10:01:31;;;;;;;1.85;0.30;;;11.50;99.90;;;;;;5074227;28;20037;-65
2022/09/27 10:03:57;;;;;;;0.73;0.20;;;11.50;99.90;;;;;;5073951;28;20112;-65
2022/09/27 10:06:25;;;;;;;0.10;0.10;;;11.50;99.90;;;;;;5074552;28;20494;-64
2022/09/27 10:08:53;;;;;;;1.00;0.28;;;11.50;99.90;;;;;;5073994;28;20164;-64
2022/09/27 10:11:25;;;;;;;0.15;0.10;;;11.50;99.90;;;;;;5073038;28;20032;-65
2022/09/27 10:13:52;;;;;;;2.03;0.30;;;11.50;99.90;;;;;;5073036;28;20043;-64
2022/09/27 10:16:19;;;;;;;2.33;0.30;;;11.40;99.90;;;;;;5073956;28;20036;-65
2022/09/27 10:18:46;;;;;;;0.80;0.30;;;11.50;99.90;;;;;;5073940;28;20043;-65
2022/09/27 10:21:18;;;;;;;1.55;0.35;;;11.40;99.90;;;;;;5073977;28;20032;-65
2022/09/27 10:24:07;;;;;;;1.90;0.80;;;11.40;99.90;;;;;;5073870;28;20055;-64
2022/09/27 10:26:34;;;;;;;0.82;0.20;;;11.50;99.90;;;;;;5073909;28;20044;-65
2022/09/27 10:29:18;;;;;;;0.20;0.20;;;11.40;99.90;;;;;;5073573;28;20041;-65
2022/09/27 10:31:46;;;;;;;1.63;0.43;;;11.40;99.90;;;;;;5073602;28;20040;-65
2022/09/27 10:34:32;;;;;;;1.23;0.40;;;11.50;99.90;;;;;;5073641;28;20044;-65
2022/09/27 10:37:21;;;;;;;0.85;0.30;;;11.50;99.90;;;;;;5073711;28;20072;-64
2022/09/27 10:39:50;;;;;;;2.15;0.50;;;11.70;99.90;;;;;;5031092;28;20191;-64
2022/09/27 10:42:21;;;;;;;;;;;11.80;99.90;;;;;;5030905;28;20446;-65
2022/09/27 10:44:47;;;;;;;1.98;0.30;;;11.80;99.90;;;;;;5031030;28;19924;-64
2022/09/27 10:47:21;;;;;;;4.28;0.65;;;11.80;99.90;;;;;;5034982;28;20037;-64
2022/09/27 10:49:51;;;;;;;0.75;0.75;;;11.90;99.90;;;;;;5035612;28;20043;-63
2022/09/27 10:52:19;;;;;;;2.03;0.35;;;11.90;99.90;;;;;;5035385;28;20053;-64
2022/09/27 10:55:06;;;;;;;0.75;0.20;;;11.90;99.90;;;;;;5035293;28;20085;-65
2022/09/27 10:57:32;;;;;;;1.55;0.20;;;11.70;99.90;;;;;;5035511;28;20055;-65
2022/09/27 11:00:02;;;;;;;2.30;0.30;;;11.60;99.90;;;;;;5035532;28;20041;-65
2022/09/27 11:02:34;;;;;;;0.90;0.60;;;11.50;99.90;;;;;;5035204;28;20042;-65
2022/09/27 11:05:26;;;;;;;0.85;0.13;;;11.40;99.90;;;;;;5035694;28;20046;-65
2022/09/27 11:07:53;;;;;;;3.38;0.30;;;11.30;99.90;;;;;;5035198;28;20045;-65
2022/09/27 11:10:26;;;;;;;1.75;0.30;;;11.20;99.90;;;;;;5035212;28;20041;-66
2022/09/27 11:13:11;;;;;;;1.75;0.50;;;11.10;99.90;;;;;;5035227;28;20405;-66
2022/09/27 11:15:43;;;;;;;2.53;0.43;;;11.00;99.90;;;;;;5036278;28;20052;-66
2022/09/27 11:18:31;;;;;;;1.23;0.28;;;11.00;99.90;;;;;;5077255;28;20076;-66
2022/09/27 11:21:00;;;;;;;3.17;0.40;;;10.80;99.90;;;;;;5076925;28;20056;-65
2022/09/27 11:23:42;;;;;;;3.45;0.47;;;10.80;99.90;;;;;;5077017;28;20368;-66
2022/09/27 11:26:36;;;;;;;4.28;0.95;;;10.80;99.90;;;;;;5077027;28;20037;-66
2022/09/27 11:29:26;;;;;;;2.75;0.77;;;10.80;99.90;;;;;;5034869;28;20120;-66
2022/09/27 11:32:10;;;;;;;1.87;0.40;;;10.80;99.90;;;;;;5034725;28;20168;-66
2022/09/27 11:35:31;;;;;;;3.55;0.35;;;10.80;99.90;;;;;;5034758;28;20053;-66
2022/09/27 11:38:35;;;;;;;2.80;0.40;;;10.90;99.90;;;;;;4956470;29;20445;-66
2022/09/27 11:41:12;;;;;;;2.40;0.30;;;11.20;99.90;;;;;;4956554;29;20218;-66
2022/09/27 11:43:50;;;;;;;2.83;0.50;;;11.60;99.90;;;;;;4956335;29;20054;-65
2022/09/27 11:46:22;;;;;;;1.80;0.73;;;11.80;99.90;;;;;;4956307;29;20086;-65
2022/09/27 11:49:13;;;;;;;2.38;0.35;;;12.10;99.90;;;;;;4956326;29;20389;-65
2022/09/27 11:52:05;;;;;;;2.35;0.47;;;12.40;99.90;;;;;;4956345;29;20043;-65
2022/09/27 11:55:07;;;;;;;1.67;0.40;;;12.60;99.90;;;;;;4956138;29;20047;-65
2022/09/27 11:57:43;;;;;;;1.27;0.40;;;12.70;99.90;;;;;;4954198;28;20398;-65
2022/09/27 12:00:34;;;;;;;0.65;0.40;;;12.70;99.90;;;;;;4956217;29;20047;-65
2022/09/27 12:03:05;;;;;;;0.98;0.32;;;12.50;99.90;;;;;;4955921;29;20564;-65
2022/09/27 12:05:37;;;;;;;0.30;0.20;;;12.40;99.90;;;;;;4972364;28;20073;-65
2022/09/27 12:08:33;;;;;;;1.15;0.60;;;12.30;99.90;;;;;;5014276;28;20176;-65
2022/09/27 12:11:11;;;;;;;1.13;0.80;;;12.20;99.90;;;;;;5029594;28;20137;-64
2022/09/27 12:13:46;;;;;;;2.60;1.00;;;12.00;99.90;;;;;;5076235;28;20044;-65
2022/09/27 12:16:15;;;;;;;2.13;1.50;;;12.00;99.90;;;;;;5075046;28;20052;-64
2022/09/27 12:18:41;;;;;;;;;;;12.00;99.90;;;;;;5075447;28;20048;-65
2022/09/27 12:21:09;;;;;;;2.10;0.80;;;12.00;99.90;;;;;;5075902;28;19924;-65
2022/09/27 12:23:48;;;;;;;3.28;0.70;;;11.90;99.90;;;;;;5075846;28;20098;-65
2022/09/27 12:26:20;;;;;;;1.23;0.60;;;11.90;99.90;;;;;;5075948;28;20041;-65
2022/09/27 12:28:51;;;;;;;3.72;0.50;;;12.00;99.90;;;;;;5074854;28;20414;-65
2022/09/27 12:31:20;;;;;;;1.48;0.60;;;11.90;99.90;;;;;;5075717;28;20037;-64
2022/09/27 12:33:53;;;;;;;6.13;1.15;;;12.10;99.90;;;;;;5075831;28;20040;-65
2022/09/27 12:36:24;;;;;;;0.93;0.35;;;12.20;99.90;;;;;;5075795;28;20036;-65
2022/09/27 12:39:00;;;;;;;4.25;0.60;;;12.30;99.90;;;;;;5075402;28;20041;-65
2022/09/27 12:41:33;;;;;;;1.53;0.73;;;12.30;99.90;;;;;;5075615;28;20041;-65
2022/09/27 12:43:59;;;;;;;6.00;0.80;;;12.40;99.90;;;;;;5075641;28;20094;-64
2022/09/27 12:46:50;;;;;;;2.92;0.65;;;12.40;99.90;;;;;;5075499;28;20036;-64
2022/09/27 12:49:40;;;;;;;2.10;0.70;;;12.40;99.90;;;;;;5075758;28;20119;-65
2022/09/27 12:52:10;;;;;;;2.40;0.52;;;12.50;99.90;;;;;;5075572;28;20041;-66
2022/09/27 12:55:10;;;;;;;2.72;0.80;;;12.40;99.90;;;;;;5075072;28;20061;-65
2022/09/27 12:58:02;;;;;;;0.95;0.25;;;12.40;99.90;;;;;;5075413;28;20437;-65
2022/09/27 13:01:02;;;;;;;2.80;0.60;;;12.30;99.90;;;;;;5075322;28;20049;-65
2022/09/27 13:04:06;;;;;;;2.72;0.50;;;12.40;99.90;;;;;;5016323;28;20097;-65
2022/09/27 13:06:46;;;;;;;2.67;0.38;;;12.40;99.90;;;;;;5016059;28;20052;-65
2022/09/27 13:09:20;;;;;;;1.70;0.43;;;12.50;99.90;;;;;;5032235;28;20496;-65
2022/09/27 13:12:00;;;;;;;1.35;0.40;;;12.50;99.90;;;;;;5032878;28;20048;-65
2022/09/27 13:14:31;;;;;;;1.65;0.93;;;12.60;99.90;;;;;;5032923;28;20049;-65
2022/09/27 13:16:57;;;;;;;1.75;0.40;;;12.70;99.90;;;;;;5032713;28;20041;-65
2022/09/27 13:19:37;;;;;;;2.17;0.30;;;12.60;99.90;;;;;;5032837;28;20179;-65
2022/09/27 13:22:04;;;;;;;1.85;0.25;;;12.60;99.90;;;;;;5032662;28;20213;-65
2022/09/27 13:24:42;;;;;;;2.40;0.50;;;12.80;99.90;;;;;;5032562;28;20131;-65
2022/09/27 13:27:26;;;;;;;1.95;0.40;;;12.60;99.90;;;;;;5032644;28;20436;-65